Time;durP1;ratioP1;P1;durP2;ratioP2;P2;SDS_P1;SDS_P2;PMS_P1;PMS_P2;Temp;Humidity;BMP_temperature;BMP_pressure;BME280_temperature;BME280_humidity;BME280_pressure;Samples;Min_cycle;Max_cycle;Signal;HPM_P1;HPM_P2
2022/08/09 00:01:47;;;;;;;0.85;0.70;;;;;;;27.09;36.32;102337.19;5051576;28;20490;-66
2022/08/09 00:04:19;;;;;;;1.42;0.82;;;;;;;27.04;36.42;102336.94;5035552;28;20029;-66
2022/08/09 00:06:45;;;;;;;1.70;0.73;;;;;;;27.04;36.11;102333.34;5034929;28;20021;-66
2022/08/09 00:09:12;;;;;;;4.03;0.90;;;;;;;26.99;36.71;102333.94;5034965;28;20048;-66
2022/08/09 00:11:38;;;;;;;2.90;0.80;;;;;;;26.96;37.18;102323.34;5051693;28;20036;-66
2022/08/09 00:14:03;;;;;;;0.70;0.70;;;;;;;26.90;37.00;102323.28;5051554;28;20486;-66
2022/08/09 00:16:29;;;;;;;3.20;1.27;;;;;;;26.88;37.12;102331.75;5035015;28;20116;-66
2022/08/09 00:18:54;;;;;;;1.80;0.60;;;;;;;26.84;37.07;102330.44;5051607;28;20040;-66
2022/08/09 00:21:20;;;;;;;1.48;0.80;;;;;;;26.84;37.11;102330.44;5051342;28;20057;-66
2022/08/09 00:23:45;;;;;;;1.50;0.77;;;;;;;26.80;36.44;102329.13;5034722;28;20055;-66
2022/08/09 00:26:11;;;;;;;1.27;0.80;;;;;;;26.80;36.81;102339.28;5051401;28;20098;-65
2022/08/09 00:28:37;;;;;;;2.97;0.98;;;;;;;26.74;37.00;102329.03;5034740;28;20044;-65
2022/08/09 00:31:03;;;;;;;2.53;0.80;;;;;;;26.74;37.41;102329.03;5054623;28;20103;-66
2022/08/09 00:33:29;;;;;;;0.75;0.60;;;;;;;26.69;37.32;102326.88;5055213;28;20025;-66
2022/08/09 00:35:54;;;;;;;1.23;0.55;;;;;;;26.68;37.24;102329.84;5038201;28;20025;-67
2022/08/09 00:38:20;;;;;;;3.15;0.90;;;;;;;26.67;37.11;102326.22;5055066;28;20445;-66
2022/08/09 00:40:46;;;;;;;0.80;0.70;;;;;;;26.61;37.34;102330.63;5038302;28;20055;-66
2022/08/09 00:43:12;;;;;;;1.25;0.77;;;;;;;26.61;37.54;102324.25;5056153;28;20501;-66
2022/08/09 00:45:37;;;;;;;3.45;0.90;;;;;;;26.59;37.87;102331.88;5054765;28;20024;-66
2022/08/09 00:48:03;;;;;;;1.17;0.82;;;;;;;26.58;37.56;102330.16;5054826;28;20495;-66
2022/08/09 00:50:29;;;;;;;3.67;0.75;;;;;;;26.55;37.54;102333.31;5038064;28;20033;-66
2022/08/09 00:52:54;;;;;;;4.03;1.23;;;;;;;26.49;37.79;102326.69;5038073;28;20055;-65
2022/08/09 00:55:20;;;;;;;2.83;1.08;;;;;;;26.48;37.87;102333.25;5055819;28;20079;-65
2022/08/09 00:57:45;;;;;;;1.20;1.10;;;;;;;26.45;37.31;102338.28;5054858;28;20554;-66
2022/08/09 01:00:12;;;;;;;2.88;1.00;;;;;;;26.43;37.86;102338.50;5054613;28;20033;-66
2022/08/09 01:02:39;;;;;;;1.05;0.95;;;;;;;26.39;37.76;102330.81;5054433;28;20113;-66
2022/08/09 01:05:13;;;;;;;3.58;0.85;;;;;;;26.39;37.60;102333.56;5037678;28;20025;-67
2022/08/09 01:07:59;;;;;;;0.93;0.90;;;;;;;26.35;38.41;102330.38;5055697;28;20033;-66
2022/08/09 01:10:53;;;;;;;1.40;0.80;;;;;;;26.28;38.15;102328.59;5037776;28;20021;-65
2022/08/09 01:13:22;;;;;;;0.80;0.80;;;;;;;26.27;37.97;102335.97;5037648;28;20027;-65
2022/08/09 01:15:48;;;;;;;1.23;0.90;;;;;;;26.26;38.15;102330.69;5055463;28;20367;-65
2022/08/09 01:18:17;;;;;;;1.45;0.73;;;;;;;26.24;37.97;102332.81;5037699;28;20044;-66
2022/08/09 01:21:10;;;;;;;2.42;1.00;;;;;;;26.20;38.04;102325.97;5037423;28;20478;-66
2022/08/09 01:23:54;;;;;;;1.05;0.75;;;;;;;26.18;37.97;102333.56;5054206;28;20405;-66
2022/08/09 01:27:07;;;;;;;0.98;0.82;;;;;;;26.14;37.90;102333.09;5054033;28;20032;-65
2022/08/09 01:29:45;;;;;;;5.03;1.58;;;;;;;26.10;38.07;102333.66;5053211;28;20056;-66
2022/08/09 01:32:12;;;;;;;3.25;0.85;;;;;;;26.06;38.55;102338.69;5053170;28;20094;-67
2022/08/09 01:34:39;;;;;;;0.88;0.80;;;;;;;26.01;38.68;102333.78;5036496;28;20426;-66
2022/08/09 01:37:06;;;;;;;3.03;0.90;;;;;;;26.00;38.05;102331.22;5036403;28;20036;-66
2022/08/09 01:39:34;;;;;;;3.22;1.08;;;;;;;25.98;38.74;102331.44;5036246;28;20025;-66
2022/08/09 01:42:03;;;;;;;0.80;0.80;;;;;;;25.95;38.71;102329.06;5019469;28;20029;-66
2022/08/09 01:44:29;;;;;;;3.60;1.30;;;;;;;25.95;38.52;102334.56;5003796;28;20143;-67
2022/08/09 01:46:57;;;;;;;2.35;1.25;;;;;;;25.92;38.71;102329.44;5036169;28;20115;-66
2022/08/09 01:49:23;;;;;;;3.17;1.25;;;;;;;25.88;38.66;102322.63;5036192;28;20021;-65
2022/08/09 01:51:52;;;;;;;1.80;1.08;;;;;;;25.87;38.79;102331.94;5036202;28;20052;-65
2022/08/09 01:54:19;;;;;;;2.25;1.23;;;;;;;25.85;39.08;102330.44;5052673;28;20064;-66
2022/08/09 01:56:46;;;;;;;3.33;1.25;;;;;;;25.82;38.78;102328.91;5019378;28;20088;-66
2022/08/09 01:59:15;;;;;;;1.40;1.13;;;;;;;25.80;38.98;102336.47;5052616;28;20060;-65
2022/08/09 02:01:42;;;;;;;1.45;1.05;;;;;;;25.77;38.72;102331.38;5052688;28;20025;-65
2022/08/09 02:04:08;;;;;;;3.20;1.10;;;;;;;25.74;39.38;102326.25;5053164;28;20039;-66
2022/08/09 02:09:19;;;;;;;1.70;1.00;;;;;;;25.69;39.16;102328.72;5053559;28;20027;-66
2022/08/09 02:11:45;;;;;;;2.22;1.60;;;;;;;25.66;39.37;102322.75;5036758;28;20029;-65
2022/08/09 02:14:12;;;;;;;3.28;1.38;;;;;;;25.66;39.39;102323.63;5053281;28;20100;-66
2022/08/09 02:16:38;;;;;;;3.97;1.38;;;;;;;25.62;39.52;102319.56;5036391;28;20025;-64
2022/08/09 02:19:04;;;;;;;3.15;1.00;;;;;;;25.62;39.55;102325.06;5053289;28;20033;-65
2022/08/09 02:21:36;;;;;;;3.10;1.02;;;;;;;25.63;39.65;102328.66;5053209;28;20175;-65
2022/08/09 02:24:02;;;;;;;1.85;1.30;;;;;;;25.59;39.78;102333.69;5036498;28;20021;-65
2022/08/09 02:26:29;;;;;;;4.03;1.33;;;;;;;25.57;39.84;102341.25;5036236;28;20383;-65
2022/08/09 02:29:08;;;;;;;1.42;1.33;;;;;;;25.55;39.79;102332.34;5052986;28;20025;-65
2022/08/09 02:31:35;;;;;;;1.83;1.13;;;;;;;25.54;39.71;102338.03;5054044;28;20060;-64
2022/08/09 02:34:07;;;;;;;2.60;1.42;;;;;;;25.50;39.71;102331.22;5052942;28;20088;-66
2022/08/09 02:36:37;;;;;;;3.08;1.10;;;;;;;25.50;40.13;102333.97;5052834;28;20029;-63
2022/08/09 02:39:07;;;;;;;3.97;1.33;;;;;;;25.48;40.07;102325.06;5052803;28;20053;-64
2022/08/09 02:41:41;;;;;;;1.75;1.20;;;;;;;25.46;39.68;102328.81;5052748;28;20023;-65
2022/08/09 02:44:09;;;;;;;3.17;1.50;;;;;;;25.45;39.45;102334.50;5052697;28;20032;-65
2022/08/09 02:46:35;;;;;;;3.78;1.35;;;;;;;25.42;39.44;102333.00;5052570;28;20020;-65
2022/08/09 02:49:05;;;;;;;4.57;1.45;;;;;;;25.42;40.15;102332.13;5052639;28;20479;-65
2022/08/09 02:51:33;;;;;;;4.03;1.20;;;;;;;25.42;39.55;102334.88;5052328;28;20433;-65
2022/08/09 02:53:59;;;;;;;3.75;1.65;;;;;;;25.39;39.79;102327.03;5052043;28;20045;-64
2022/08/09 02:56:26;;;;;;;2.03;1.50;;;;;;;25.38;40.08;102328.06;5035728;28;20056;-65
2022/08/09 02:58:52;;;;;;;1.88;1.50;;;;;;;25.35;40.01;102315.56;5052447;28;20048;-67
2022/08/09 03:01:17;;;;;;;3.53;1.55;;;;;;;25.30;39.68;102308.94;5052415;28;20063;-66
2022/08/09 03:03:43;;;;;;;7.18;1.80;;;;;;;25.30;39.98;102322.66;5052350;28;20024;-65
2022/08/09 03:06:13;;;;;;;1.48;1.38;;;;;;;25.29;40.31;102324.56;5035694;28;20450;-65
2022/08/09 03:08:41;;;;;;;2.10;1.58;;;;;;;25.28;40.48;102324.75;5052407;28;20120;-65
2022/08/09 03:11:07;;;;;;;3.95;1.40;;;;;;;25.26;40.16;102319.47;5035528;28;20033;-64
2022/08/09 03:13:32;;;;;;;3.35;1.52;;;;;;;25.26;40.32;102326.84;5052296;28;20071;-65
2022/08/09 03:15:58;;;;;;;4.13;1.45;;;;;;;25.23;40.40;102327.22;5052209;28;20021;-65
2022/08/09 03:18:23;;;;;;;2.10;1.45;;;;;;;25.20;40.82;102327.59;5035782;28;20040;-65
2022/08/09 03:20:49;;;;;;;3.67;1.40;;;;;;;25.16;40.21;102318.03;5035404;28;20064;-65
2022/08/09 03:23:16;;;;;;;1.55;1.08;;;;;;;25.11;40.25;102320.50;5035800;28;20028;-66
2022/08/09 03:25:42;;;;;;;1.80;1.33;;;;;;;25.06;40.08;102320.22;5035385;28;20068;-65
2022/08/09 03:28:08;;;;;;;4.00;1.20;;;;;;;24.98;40.11;102317.56;5052322;28;20063;-64
2022/08/09 03:30:34;;;;;;;2.55;1.23;;;;;;;24.98;40.80;102331.25;5052132;28;20032;-65
2022/08/09 03:33:03;;;;;;;4.45;1.80;;;;;;;24.94;40.21;102332.66;5035362;28;20442;-66
2022/08/09 03:35:28;;;;;;;3.10;1.40;;;;;;;24.87;40.71;102330.66;5035554;28;20104;-65
2022/08/09 03:37:54;;;;;;;3.75;1.45;;;;;;;24.81;40.25;102334.16;5051844;28;20115;-64
2022/08/09 03:40:19;;;;;;;6.63;1.83;;;;;;;24.74;39.98;102335.91;5051847;28;20029;-64
2022/08/09 03:42:45;;;;;;;2.42;1.48;;;;;;;24.69;40.29;102330.13;5051936;28;20029;-65
2022/08/09 03:45:10;;;;;;;2.00;1.45;;;;;;;24.65;40.36;102334.25;5035220;28;20024;-65
2022/08/09 03:47:36;;;;;;;6.15;1.58;;;;;;;24.60;40.88;102330.38;5051983;28;20024;-64
2022/08/09 03:50:04;;;;;;;3.33;1.67;;;;;;;24.52;40.42;102328.56;5051907;28;20074;-65
2022/08/09 03:52:31;;;;;;;3.13;1.52;;;;;;;24.48;40.61;102337.34;5051988;28;20082;-64
2022/08/09 03:54:58;;;;;;;5.28;1.75;;;;;;;24.43;40.84;102332.38;5051843;28;20390;-66
2022/08/09 03:57:24;;;;;;;20.88;1.95;;;;;;;24.38;40.81;102342.19;5051942;28;20032;-64
2022/08/09 03:59:51;;;;;;;4.80;2.00;;;;;;;24.37;40.78;102346.84;5051800;28;20021;-65
2022/08/09 04:02:18;;;;;;;4.47;1.73;;;;;;;24.34;40.50;102352.69;5051840;28;20146;-65
2022/08/09 04:04:43;;;;;;;2.85;1.50;;;;;;;24.29;41.08;102350.47;5037803;28;20033;-64
2022/08/09 04:07:08;;;;;;;5.35;2.05;;;;;;;24.26;41.34;102350.00;5039029;28;20074;-64
2022/08/09 04:09:34;;;;;;;3.72;1.88;;;;;;;24.22;40.49;102352.25;5055759;28;20505;-65
2022/08/09 04:12:09;;;;;;;2.20;1.45;;;;;;;24.16;40.47;102358.44;5055589;28;20028;-65
2022/08/09 04:14:37;;;;;;;2.55;1.55;;;;;;;24.05;40.63;102341.53;5056739;28;20375;-65
2022/08/09 04:17:03;;;;;;;3.25;1.77;;;;;;;24.05;40.98;102357.97;5055562;28;20021;-65
2022/08/09 04:19:29;;;;;;;2.17;1.48;;;;;;;24.01;40.71;102356.63;5039007;28;20123;-64
2022/08/09 04:21:54;;;;;;;2.28;1.70;;;;;;;23.94;40.99;102352.91;5038494;28;20186;-65
2022/08/09 04:24:19;;;;;;;2.75;1.48;;;;;;;23.91;41.25;102362.31;5022330;28;20123;-65
2022/08/09 04:26:45;;;;;;;2.60;1.48;;;;;;;23.86;41.42;102359.28;5038645;28;20401;-65
2022/08/09 04:29:10;;;;;;;1.67;1.52;;;;;;;23.81;41.12;102358.97;5055327;28;20033;-65
2022/08/09 04:31:36;;;;;;;1.70;1.48;;;;;;;23.81;41.42;102363.56;5038609;28;20068;-65
2022/08/09 04:34:01;;;;;;;4.05;1.88;;;;;;;23.80;40.99;102370.06;5038617;28;20486;-65
2022/08/09 04:36:28;;;;;;;5.63;2.08;;;;;;;23.84;41.93;102379.66;5056815;28;20025;-65
2022/08/09 04:38:58;;;;;;;5.00;1.90;;;;;;;23.86;41.50;102374.84;5038490;28;20021;-65
2022/08/09 04:41:23;;;;;;;2.35;1.30;;;;;;;23.90;42.03;102382.50;5055106;28;20079;-64
2022/08/09 04:43:49;;;;;;;6.47;1.73;;;;;;;23.94;42.19;102383.88;5055206;28;20028;-64
2022/08/09 04:46:14;;;;;;;7.28;2.03;;;;;;;23.98;42.35;102378.91;5038193;28;20044;-65
2022/08/09 04:48:40;;;;;;;2.42;1.80;;;;;;;24.00;41.73;102379.56;5056237;28;20025;-65
2022/08/09 04:51:05;;;;;;;3.78;2.25;;;;;;;24.03;41.09;102381.94;5056172;28;20029;-65
2022/08/09 04:53:30;;;;;;;2.88;1.98;;;;;;;24.04;42.11;102368.06;5054840;28;20115;-66
2022/08/09 04:55:56;;;;;;;2.92;2.00;;;;;;;24.04;41.72;102368.06;5054893;28;20025;-65
2022/08/09 04:58:21;;;;;;;3.45;1.98;;;;;;;24.08;41.63;102368.56;5038125;28;20037;-65
2022/08/09 05:00:47;;;;;;;6.05;1.95;;;;;;;24.11;41.98;102369.09;5038118;28;20037;-65
2022/08/09 05:03:12;;;;;;;5.55;2.33;;;;;;;24.15;41.96;102375.03;5054640;28;20527;-65
2022/08/09 05:05:37;;;;;;;5.88;1.83;;;;;;;24.19;41.42;102370.91;5054734;28;20032;-65
2022/08/09 05:08:03;;;;;;;4.53;1.75;;;;;;;24.26;41.55;102372.75;5038076;28;20087;-65
2022/08/09 05:10:28;;;;;;;5.38;2.05;;;;;;;24.33;41.39;102373.75;5056052;28;20036;-65
2022/08/09 05:12:54;;;;;;;4.03;2.05;;;;;;;24.44;41.68;102374.34;5054396;28;20482;-65
2022/08/09 05:15:19;;;;;;;5.93;2.03;;;;;;;24.58;41.60;102379.03;5054698;28;20029;-65
2022/08/09 05:17:45;;;;;;;10.93;2.30;;;;;;;24.68;41.91;102372.25;5054334;28;20025;-65
2022/08/09 05:20:10;;;;;;;7.07;2.10;;;;;;;24.80;42.21;102370.84;5054349;28;20398;-66
2022/08/09 05:22:35;;;;;;;3.83;2.53;;;;;;;24.95;41.99;102373.63;5054143;28;20055;-65
2022/08/09 05:25:02;;;;;;;5.85;2.30;;;;;;;25.08;41.29;102378.47;5037418;28;20057;-65
2022/08/09 05:27:28;;;;;;;5.40;2.53;;;;;;;25.23;41.65;102376.59;5037458;28;20087;-65
2022/08/09 05:29:53;;;;;;;4.15;2.08;;;;;;;25.37;41.24;102384.00;5037550;28;20036;-65
2022/08/09 05:32:18;;;;;;;3.13;2.08;;;;;;;25.48;41.43;102378.06;5053901;28;20039;-65
2022/08/09 05:34:44;;;;;;;3.17;2.10;;;;;;;25.63;41.23;102384.38;5037217;28;20109;-66
2022/08/09 05:37:10;;;;;;;2.38;1.90;;;;;;;25.75;41.43;102371.03;5055012;28;20025;-66
2022/08/09 05:39:37;;;;;;;2.47;2.15;;;;;;;25.90;41.13;102375.50;5053857;28;20378;-66
2022/08/09 05:42:03;;;;;;;4.45;2.20;;;;;;;26.07;40.88;102376.13;5055006;28;20032;-66
2022/08/09 05:44:28;;;;;;;5.43;2.42;;;;;;;26.20;40.76;102381.78;5053738;28;20028;-65
2022/08/09 05:46:53;;;;;;;2.53;1.77;;;;;;;26.35;41.07;102384.50;5053791;28;20029;-66
2022/08/09 05:49:20;;;;;;;4.00;2.00;;;;;;;26.47;40.91;102377.41;5020395;28;20036;-67
2022/08/09 05:51:45;;;;;;;2.35;1.67;;;;;;;26.66;40.56;102398.78;5037257;28;20055;-65
2022/08/09 05:54:10;;;;;;;2.85;2.17;;;;;;;26.82;40.35;102398.53;5054918;28;20479;-66
2022/08/09 05:56:36;;;;;;;6.25;1.90;;;;;;;26.96;40.38;102394.88;5053625;28;20386;-66
2022/08/09 05:59:01;;;;;;;7.10;2.28;;;;;;;27.15;39.77;102387.81;5037164;28;20031;-66
2022/08/09 06:01:27;;;;;;;6.00;1.98;;;;;;;27.32;39.75;102393.84;5053380;28;20398;-65
2022/08/09 06:03:53;;;;;;;4.65;2.30;;;;;;;27.49;39.66;102396.13;5053481;28;20363;-65
2022/08/09 06:06:19;;;;;;;5.85;2.20;;;;;;;27.64;39.41;102387.72;5036605;28;20119;-65
2022/08/09 06:08:44;;;;;;;4.60;1.50;;;;;;;27.84;39.51;102391.44;5036893;28;20031;-66
2022/08/09 06:11:10;;;;;;;5.50;2.08;;;;;;;27.98;39.05;102384.94;5053374;28;20025;-66
2022/08/09 06:13:36;;;;;;;5.32;2.33;;;;;;;28.16;39.15;102381.66;5053199;28;20025;-66
2022/08/09 06:16:02;;;;;;;5.97;1.75;;;;;;;28.31;39.00;102382.31;5053237;28;20471;-66
2022/08/09 06:18:27;;;;;;;6.93;2.08;;;;;;;28.44;38.72;102376.84;5053037;28;20029;-66
2022/08/09 06:20:54;;;;;;;3.63;1.70;;;;;;;28.56;39.00;102383.44;5052956;28;20423;-65
2022/08/09 06:23:19;;;;;;;2.10;1.58;;;;;;;28.69;38.66;102379.88;5053018;28;20114;-66
2022/08/09 06:25:44;;;;;;;4.38;2.20;;;;;;;28.83;38.88;102384.34;5052839;28;20508;-65
2022/08/09 06:28:10;;;;;;;5.43;2.47;;;;;;;28.95;38.06;102390.91;5051868;28;20497;-65
2022/08/09 06:30:35;;;;;;;3.88;2.03;;;;;;;29.10;38.60;102386.03;5052761;28;20031;-66
2022/08/09 06:33:01;;;;;;;4.43;2.10;;;;;;;29.23;38.05;102391.56;5052950;28;20029;-66
2022/08/09 06:35:26;;;;;;;2.00;1.65;;;;;;;29.38;37.91;102403.25;5052809;28;20394;-66
2022/08/09 06:37:52;;;;;;;5.60;2.13;;;;;;;29.50;37.38;102397.06;5052742;28;20036;-66
2022/08/09 06:40:17;;;;;;;5.13;2.03;;;;;;;29.62;37.47;102396.19;5053869;28;20024;-67
2022/08/09 06:42:42;;;;;;;4.90;2.45;;;;;;;29.75;36.77;102400.84;5052784;28;20108;-67
2022/08/09 06:45:08;;;;;;;9.05;2.47;;;;;;;29.88;36.99;102398.03;5052493;28;20489;-67
2022/08/09 06:47:34;;;;;;;2.65;1.95;;;;;;;30.02;36.94;102402.44;5019514;28;20036;-68
2022/08/09 06:49:59;;;;;;;3.92;1.75;;;;;;;30.17;37.38;102400.28;5053548;28;20390;-67
2022/08/09 06:52:25;;;;;;;4.32;2.08;;;;;;;30.31;36.86;102401.91;5051552;28;20073;-67
2022/08/09 06:54:50;;;;;;;2.03;1.83;;;;;;;30.43;36.63;102394.59;5052254;28;20024;-67
2022/08/09 06:57:15;;;;;;;3.13;1.83;;;;;;;30.55;36.00;102398.38;5035632;28;20039;-67
2022/08/09 06:59:41;;;;;;;5.10;2.05;;;;;;;30.68;36.40;102396.59;5053471;28;20040;-66
2022/08/09 07:02:07;;;;;;;2.75;1.77;;;;;;;30.80;35.82;102403.94;5053515;28;20036;-67
2022/08/09 07:04:32;;;;;;;3.60;1.83;;;;;;;30.90;35.77;102400.69;5035482;28;20033;-67
2022/08/09 07:06:58;;;;;;;5.15;1.67;;;;;;;31.03;35.74;102406.13;5052218;28;20033;-67
2022/08/09 07:09:23;;;;;;;9.85;2.20;;;;;;;31.13;35.52;102412.00;5052339;28;20025;-67
2022/08/09 07:11:49;;;;;;;3.55;2.00;;;;;;;31.26;34.99;102406.34;5035469;28;20036;-67
2022/08/09 07:14:16;;;;;;;5.10;2.17;;;;;;;31.38;34.90;102403.69;5035554;28;20047;-67
2022/08/09 07:16:45;;;;;;;4.70;1.92;;;;;;;31.49;35.67;102401.00;5035803;28;20057;-67
2022/08/09 07:19:11;;;;;;;3.47;1.70;;;;;;;31.63;34.74;102402.56;5052316;28;20037;-66
2022/08/09 07:21:37;;;;;;;2.90;1.67;;;;;;;31.71;34.55;102402.25;5052019;28;20128;-66
2022/08/09 07:24:04;;;;;;;4.28;2.28;;;;;;;31.90;34.37;102403.13;5052093;28;20107;-66
2022/08/09 07:26:29;;;;;;;9.38;2.05;;;;;;;32.06;33.93;102404.44;5051980;28;20025;-66
2022/08/09 07:28:54;;;;;;;8.75;2.85;;;;;;;32.17;34.16;102411.97;5035389;28;20118;-67
2022/08/09 07:31:20;;;;;;;5.07;1.85;;;;;;;32.29;34.10;102401.78;5053194;28;20448;-67
2022/08/09 07:33:45;;;;;;;2.60;1.85;;;;;;;32.42;34.01;102398.81;5035412;28;20029;-67
2022/08/09 07:36:12;;;;;;;4.35;1.70;;;;;;;32.61;33.92;102394.91;5053251;28;20061;-66
2022/08/09 07:38:37;;;;;;;8.63;2.15;;;;;;;32.79;34.04;102399.56;5051568;28;20078;-67
2022/08/09 07:41:03;;;;;;;4.07;1.92;;;;;;;32.95;33.17;102403.56;5052239;28;20029;-67
2022/08/09 07:43:28;;;;;;;3.17;1.90;;;;;;;33.14;33.92;102405.22;5035205;28;20483;-67
2022/08/09 07:45:54;;;;;;;5.68;2.20;;;;;;;33.29;32.52;102397.22;5051781;28;20518;-67
2022/08/09 07:48:19;;;;;;;4.57;2.17;;;;;;;33.49;32.63;102408.81;5051875;28;20040;-67
2022/08/09 07:50:45;;;;;;;5.20;1.95;;;;;;;33.65;32.60;102402.53;5051664;28;20079;-67
2022/08/09 07:53:10;;;;;;;8.50;2.05;;;;;;;33.79;32.21;102415.09;5051581;28;20398;-67
2022/08/09 07:55:35;;;;;;;4.57;2.08;;;;;;;33.94;32.72;102407.09;5035129;28;20021;-67
2022/08/09 07:58:01;;;;;;;4.20;1.70;;;;;;;34.11;31.84;102401.63;5051629;28;20029;-67
2022/08/09 08:00:28;;;;;;;4.63;1.67;;;;;;;34.25;31.71;102391.91;5051723;28;20035;-67
2022/08/09 08:02:55;;;;;;;2.65;1.88;;;;;;;34.42;31.65;102397.50;5051556;28;20033;-66
2022/08/09 08:05:20;;;;;;;5.07;2.00;;;;;;;34.57;32.17;102395.03;5052732;28;20155;-67
2022/08/09 08:07:45;;;;;;;3.28;1.98;;;;;;;34.74;31.21;102400.59;5051762;28;20546;-67
2022/08/09 08:10:11;;;;;;;6.15;1.50;;;;;;;34.90;31.32;102389.47;5051569;28;20054;-67
2022/08/09 08:12:38;;;;;;;1.73;1.60;;;;;;;35.04;31.36;102390.81;5051791;28;20029;-67
2022/08/09 08:15:04;;;;;;;3.15;1.58;;;;;;;35.22;30.43;102395.31;5051529;28;20013;-67
2022/08/09 08:17:30;;;;;;;4.03;1.70;;;;;;;35.37;30.96;102394.72;5034870;28;20033;-67
2022/08/09 08:19:55;;;;;;;5.05;2.00;;;;;;;35.48;30.13;102397.41;5051560;28;20119;-68
2022/08/09 08:22:20;;;;;;;6.70;1.92;;;;;;;35.61;30.71;102408.22;5051247;28;20155;-67
2022/08/09 08:24:48;;;;;;;3.88;1.30;;;;;;;35.73;30.46;102394.16;5052574;28;20386;-67
2022/08/09 08:27:13;;;;;;;2.10;1.30;;;;;;;35.89;29.80;102398.81;5035072;28;20039;-67
2022/08/09 08:29:38;;;;;;;4.22;1.60;;;;;;;36.03;29.71;102399.31;5043572;28;20403;-67
2022/08/09 08:32:04;;;;;;;2.45;1.48;;;;;;;36.16;29.44;102405.31;5041264;28;20062;-67
2022/08/09 08:34:29;;;;;;;4.00;1.48;;;;;;;36.27;29.79;102403.47;5048426;28;20028;-67
2022/08/09 08:36:55;;;;;;;8.00;1.50;;;;;;;36.41;29.64;102403.91;5034792;28;20040;-66
2022/08/09 08:39:20;;;;;;;8.07;1.90;;;;;;;36.52;29.34;102402.94;5034725;28;20029;-67
2022/08/09 08:41:45;;;;;;;3.08;1.52;;;;;;;36.60;28.98;102406.09;5051384;28;20028;-67
2022/08/09 08:44:13;;;;;;;1.98;1.45;;;;;;;36.70;28.94;102411.81;5018245;28;20029;-67
2022/08/09 08:46:39;;;;;;;1.05;1.05;;;;;;;36.85;28.98;102405.50;5051136;28;20470;-66
2022/08/09 08:49:09;;;;;;;5.22;1.50;;;;;;;37.00;28.57;102407.59;5051144;28;20029;-67
2022/08/09 08:51:35;;;;;;;2.58;1.50;;;;;;;37.15;28.38;102408.59;5036924;28;20033;-66
2022/08/09 08:54:06;;;;;;;4.50;1.40;;;;;;;37.27;28.73;102412.00;5038000;28;20124;-66
2022/08/09 08:56:34;;;;;;;3.00;1.55;;;;;;;37.40;28.61;102421.06;5054778;28;20498;-67
2022/08/09 08:59:01;;;;;;;2.88;1.45;;;;;;;37.52;28.29;102411.38;5054641;28;20020;-67
2022/08/09 09:01:26;;;;;;;4.47;1.33;;;;;;;37.65;28.40;102412.84;5054564;28;20021;-67
2022/08/09 09:03:52;;;;;;;1.83;1.15;;;;;;;37.79;28.13;102411.22;5038066;28;20067;-67
2022/08/09 09:06:18;;;;;;;2.55;1.40;;;;;;;37.91;27.97;102405.44;5054534;28;20050;-66
2022/08/09 09:08:45;;;;;;;3.83;1.48;;;;;;;38.01;27.63;102408.28;5054500;28;20110;-66
2022/08/09 09:11:10;;;;;;;1.40;1.17;;;;;;;38.08;27.20;102418.09;5037882;28;20021;-68
2022/08/09 09:13:38;;;;;;;3.63;1.50;;;;;;;38.12;27.60;102415.59;5055594;28;20033;-66
2022/08/09 09:16:04;;;;;;;2.47;1.38;;;;;;;38.17;27.48;102424.84;5054358;28;20486;-66
2022/08/09 09:18:29;;;;;;;3.33;1.30;;;;;;;38.24;27.24;102417.06;5054445;28;20111;-67
2022/08/09 09:20:56;;;;;;;2.30;1.60;;;;;;;38.35;27.53;102424.41;5054217;28;20517;-66
2022/08/09 09:23:42;;;;;;;3.00;1.70;;;;;;;38.47;26.63;102424.16;5054304;28;20479;-66
2022/08/09 09:26:08;;;;;;;6.57;1.60;;;;;;;38.54;26.41;102426.66;5054145;28;20027;-66
2022/08/09 09:28:34;;;;;;;5.65;1.08;;;;;;;38.60;27.06;102419.94;5037307;28;20025;-66
2022/08/09 09:31:00;;;;;;;1.65;1.20;;;;;;;38.70;26.00;102414.34;5037195;28;20025;-66
2022/08/09 09:33:34;;;;;;;4.93;1.10;;;;;;;38.81;26.10;102416.91;5054051;28;20078;-66
2022/08/09 09:36:02;;;;;;;3.63;1.52;;;;;;;38.89;26.07;102407.94;5037180;28;20021;-66
2022/08/09 09:38:43;;;;;;;3.45;1.15;;;;;;;39.00;26.53;102409.63;5037180;28;20029;-67
2022/08/09 09:41:09;;;;;;;1.67;1.35;;;;;;;39.09;25.31;102420.31;5055098;28;20052;-66
2022/08/09 09:43:35;;;;;;;1.95;1.27;;;;;;;39.17;25.50;102414.13;5053647;28;20033;-66
2022/08/09 09:46:01;;;;;;;1.48;1.13;;;;;;;39.27;25.69;102414.13;5053777;28;20025;-66
2022/08/09 09:48:28;;;;;;;3.83;1.48;;;;;;;39.34;25.82;102404.28;5053777;28;20029;-66
2022/08/09 09:50:54;;;;;;;4.80;1.40;;;;;;;39.45;25.80;102408.75;5053694;28;20025;-66
2022/08/09 09:53:23;;;;;;;3.10;1.20;;;;;;;39.52;24.93;102405.66;5037214;28;20403;-66
2022/08/09 09:55:57;;;;;;;4.25;1.17;;;;;;;39.68;25.11;102404.50;5037009;28;20017;-66
2022/08/09 09:58:23;;;;;;;2.15;1.17;;;;;;;39.88;25.53;102409.19;5037143;28;20032;-67
2022/08/09 10:00:54;;;;;;;2.50;2.22;;;;;;;40.24;25.33;102416.34;5053464;28;20024;-67
2022/08/09 10:03:43;;;;;;;5.43;3.00;;;;;;;40.91;24.80;102409.19;5036570;28;20509;-67
2022/08/09 10:06:08;;;;;;;3.05;2.35;;;;;;;41.56;24.19;102410.53;5054535;28;20052;-67
2022/08/09 10:08:34;;;;;;;1.77;1.27;;;;;;;42.51;23.30;102413.25;5036771;28;20035;-67
2022/08/09 10:10:59;;;;;;;2.35;1.38;;;;;;;43.78;22.23;102416.38;5054539;28;20041;-67
2022/08/09 10:13:38;;;;;;;2.85;1.35;;;;;;;43.99;21.85;102408.31;5053314;28;20025;-67
2022/08/09 10:16:04;;;;;;;3.35;1.27;;;;;;;43.40;22.35;102409.22;5053301;28;20029;-67
2022/08/09 10:18:29;;;;;;;3.85;1.27;;;;;;;43.02;22.90;102407.66;5053215;28;20036;-67
2022/08/09 10:21:05;;;;;;;2.28;1.45;;;;;;;42.77;22.75;102412.53;5052942;28;20033;-67
2022/08/09 10:23:30;;;;;;;5.07;1.40;;;;;;;42.62;22.91;102410.00;5036402;28;20037;-67
2022/08/09 10:25:56;;;;;;;3.08;1.35;;;;;;;42.63;22.91;102417.31;5053147;28;20108;-67
2022/08/09 10:28:22;;;;;;;3.03;1.10;;;;;;;42.71;23.06;102416.63;5036458;28;20039;-67
2022/08/09 10:30:47;;;;;;;2.72;1.10;;;;;;;42.76;22.57;102410.06;5053046;28;20029;-67
2022/08/09 10:33:14;;;;;;;4.22;1.10;;;;;;;42.89;22.27;102420.53;5052942;28;20029;-67
2022/08/09 10:35:41;;;;;;;2.88;1.60;;;;;;;43.01;22.51;102394.69;5054153;28;20082;-67
2022/08/09 10:38:06;;;;;;;1.83;1.08;;;;;;;43.17;22.33;102394.09;5036419;28;20025;-66
2022/08/09 10:40:32;;;;;;;3.15;1.17;;;;;;;43.34;22.12;102399.16;5054022;28;20025;-66
2022/08/09 10:42:57;;;;;;;6.95;1.20;;;;;;;43.56;22.19;102399.28;5053171;28;20453;-67
2022/08/09 10:45:23;;;;;;;2.00;1.17;;;;;;;43.70;21.77;102391.66;5052789;28;20029;-66
2022/08/09 10:48:04;;;;;;;5.10;2.28;;;;;;;43.80;21.34;102402.78;5052709;28;20421;-67
2022/08/09 10:53:52;;;;;;;3.22;1.35;;;;;;;44.09;21.67;102398.75;5053852;28;20032;-67
2022/08/09 10:56:29;;;;;;;1.70;1.00;;;;;;;44.22;21.45;102397.94;5052539;28;20066;-67
2022/08/09 10:58:59;;;;;;;1.80;1.35;;;;;;;44.36;21.42;102388.25;5052652;28;20029;-67
2022/08/09 11:01:30;;;;;;;1.40;1.30;;;;;;;44.47;20.85;102386.00;5035909;28;20033;-67
2022/08/09 11:04:11;;;;;;;4.25;1.52;;;;;;;44.62;21.03;102391.31;5052502;28;20086;-67
2022/08/09 11:06:38;;;;;;;2.93;1.20;;;;;;;44.72;20.51;102391.06;5053651;28;20025;-67
2022/08/09 11:09:04;;;;;;;5.55;1.30;;;;;;;44.85;20.70;102400.63;5052370;28;20056;-67
2022/08/09 11:11:56;;;;;;;3.05;1.33;;;;;;;44.95;20.46;102384.22;5035601;28;20410;-67
2022/08/09 11:14:36;;;;;;;1.48;1.00;;;;;;;45.00;20.37;102377.63;5052946;28;20052;-67
2022/08/09 11:17:03;;;;;;;2.20;1.00;;;;;;;44.95;20.37;102384.22;5036403;28;20120;-66
2022/08/09 11:20:08;;;;;;;3.45;1.30;;;;;;;44.97;20.23;102379.09;5015791;28;20079;-66
2022/08/09 11:22:39;;;;;;;3.92;1.20;;;;;;;45.03;20.00;102380.66;5032206;28;20060;-66
2022/08/09 11:25:08;;;;;;;;;;;;;;;45.16;20.59;102378.88;5033900;28;20044;-66
2022/08/09 11:27:37;;;;;;;4.75;1.20;;;;;;;45.13;20.32;102365.34;5032229;28;19912;-66
2022/08/09 11:30:07;;;;;;;1.35;1.13;;;;;;;45.08;19.83;102369.19;5033409;28;20155;-66
2022/08/09 11:33:05;;;;;;;2.53;1.42;;;;;;;45.12;20.28;102361.69;5033636;28;20108;-66